createdAt,value
2022-12-05T00:00:55.710Z,96703.47
2022-12-05T00:06:17.352Z,96689.34
2022-12-05T00:11:39.043Z,96686.97
2022-12-05T00:16:59.989Z,96676.63
2022-12-05T00:22:20.744Z,96681.06
2022-12-05T00:27:41.626Z,96682.72
2022-12-05T00:33:02.491Z,96693.97
2022-12-05T00:38:23.338Z,96694.09
2022-12-05T00:43:44.725Z,96698.41
2022-12-05T00:49:06.579Z,96711.50
2022-12-05T00:54:27.247Z,96709.75
2022-12-05T00:59:47.908Z,96709.97
2022-12-05T01:05:08.729Z,96705.53
2022-12-05T01:10:29.290Z,96705.72
2022-12-05T01:15:50.546Z,96705.72
2022-12-05T01:21:11.589Z,96705.66
2022-12-05T01:26:32.115Z,96716.78
2022-12-05T01:31:53.444Z,96713.06
2022-12-05T01:37:14.200Z,96718.25
2022-12-05T01:42:34.999Z,96722.56
2022-12-05T01:47:55.667Z,96714.81
2022-12-05T01:53:17.672Z,96719.97
2022-12-05T01:58:40.232Z,96718.44
2022-12-05T02:04:01.127Z,96712.47
2022-12-05T02:09:22.537Z,96720.19
2022-12-05T02:15:01.894Z,96720.09
2022-12-05T02:20:31.656Z,96711.41
2022-12-05T02:26:10.708Z,96715.03
2022-12-05T02:31:31.496Z,96727.00
2022-12-05T02:36:52.251Z,96738.47
2022-12-05T02:42:22.497Z,96740.19
2022-12-05T02:47:51.171Z,96741.97
2022-12-05T02:53:14.445Z,96746.50
2022-12-05T02:58:39.109Z,96740.50
2022-12-05T03:04:02.162Z,96749.72
2022-12-05T03:09:29.730Z,96757.25
2022-12-05T03:14:54.572Z,96754.25
2022-12-05T03:20:25.317Z,96755.59
2022-12-05T03:25:57.665Z,96752.22
2022-12-05T03:31:27.778Z,96746.84
2022-12-05T03:36:50.209Z,96742.09
2022-12-05T03:42:17.113Z,96741.34
2022-12-05T03:47:57.681Z,96746.44
2022-12-05T03:53:24.623Z,96756.09
2022-12-05T03:58:54.186Z,96751.97
2022-12-05T04:04:17.693Z,96760.75
2022-12-05T04:09:45.048Z,96754.25
2022-12-05T04:15:08.501Z,96759.41
2022-12-05T04:20:47.596Z,96753.31
2022-12-05T04:26:11.150Z,96759.19
2022-12-05T04:31:34.168Z,96763.22
2022-12-05T04:37:15.060Z,96759.72
2022-12-05T04:42:37.112Z,96768.50
2022-12-05T04:48:01.361Z,96785.78
2022-12-05T04:53:23.646Z,96775.97
2022-12-05T04:58:44.503Z,96768.31
2022-12-05T05:04:13.900Z,96771.94
2022-12-05T05:09:35.031Z,96781.22
2022-12-05T05:14:55.430Z,96786.50
2022-12-05T05:20:25.251Z,96787.03
2022-12-05T05:25:45.948Z,96803.75
2022-12-05T05:31:07.529Z,96825.53
2022-12-05T05:36:28.236Z,96833.59
2022-12-05T05:41:49.048Z,96833.47
2022-12-05T05:47:09.947Z,96844.84
2022-12-05T05:52:32.356Z,96832.78
2022-12-05T05:57:52.904Z,96831.66
2022-12-05T06:03:13.894Z,96836.53
2022-12-05T06:08:36.138Z,96854.41
2022-12-05T06:13:58.219Z,96858.66
2022-12-05T06:19:18.771Z,96872.59
2022-12-05T06:24:39.687Z,96872.63
2022-12-05T06:30:00.967Z,96880.44
2022-12-05T06:35:21.724Z,96881.81
2022-12-05T06:40:42.982Z,96886.28
2022-12-05T06:46:07.260Z,96890.00
2022-12-05T06:51:27.862Z,96889.59
2022-12-05T06:56:48.524Z,96895.28
2022-12-05T07:02:11.501Z,96895.06
2022-12-05T07:07:32.104Z,96899.16
2022-12-05T07:12:52.744Z,96897.16
2022-12-05T07:18:13.764Z,96909.81
2022-12-05T07:23:34.376Z,96906.63
2022-12-05T07:28:55.883Z,96910.72
2022-12-05T07:34:16.599Z,96914.47
2022-12-05T07:39:37.368Z,96917.53
2022-12-05T07:44:58.294Z,96919.72
2022-12-05T07:50:19.247Z,96916.09
2022-12-05T07:55:40.023Z,96928.41
2022-12-05T08:01:08.278Z,96932.50
2022-12-05T08:06:30.353Z,96942.03
2022-12-05T08:11:52.840Z,96947.03
2022-12-05T08:17:13.613Z,96965.31
2022-12-05T08:22:34.411Z,96970.56
2022-12-05T08:27:55.172Z,96974.38
2022-12-05T08:33:15.872Z,96990.84
2022-12-05T08:38:36.987Z,96991.41
2022-12-05T08:43:58.668Z,97001.00
2022-12-05T08:49:19.386Z,96998.78
2022-12-05T08:54:40.180Z,97008.94
2022-12-05T09:00:00.631Z,97014.38
2022-12-05T09:05:28.907Z,97004.72
2022-12-05T09:10:50.156Z,97000.22
2022-12-05T09:16:12.478Z,97015.78
2022-12-05T09:21:33.385Z,97020.34
2022-12-05T09:26:54.158Z,97027.03
2022-12-05T09:32:14.868Z,97039.13
2022-12-05T09:37:40.112Z,97043.28
2022-12-05T09:43:19.299Z,97041.47
2022-12-05T09:48:41.004Z,97043.25
2022-12-05T09:54:02.968Z,97041.78
2022-12-05T09:59:23.579Z,97035.47
2022-12-05T10:05:00.321Z,97035.19
2022-12-05T10:10:21.697Z,97024.22
2022-12-05T10:15:56.822Z,97014.63
2022-12-05T10:21:30.019Z,97017.69
2022-12-05T10:26:59.011Z,97025.13
2022-12-05T10:32:28.102Z,97013.97
2022-12-05T10:37:50.869Z,97020.03
2022-12-05T10:43:13.804Z,97015.03
2022-12-05T10:48:36.692Z,97016.78
2022-12-05T10:53:57.604Z,97014.00
2022-12-05T10:59:25.754Z,97008.91
2022-12-05T11:04:46.620Z,96995.75
2022-12-05T11:10:28.484Z,96990.25
2022-12-05T11:15:55.174Z,96997.44
2022-12-05T11:21:19.550Z,96988.66
2022-12-05T11:26:40.105Z,96981.63
2022-12-05T11:32:01.237Z,96982.44
2022-12-05T11:37:26.749Z,96977.66
2022-12-05T11:43:07.708Z,96973.72
2022-12-05T11:48:40.049Z,96981.47
2022-12-05T11:54:00.769Z,96969.19
2022-12-05T11:59:27.864Z,96963.22
2022-12-05T12:04:55.974Z,96959.22
2022-12-05T12:10:36.115Z,96962.72
2022-12-05T12:16:10.674Z,96966.75
2022-12-05T12:21:38.415Z,96971.97
2022-12-05T12:27:25.895Z,96958.69
2022-12-05T12:32:46.351Z,96958.19
2022-12-05T12:38:06.865Z,96981.25
2022-12-05T12:43:53.234Z,96978.47
2022-12-05T12:49:40.047Z,96977.72
2022-12-05T12:55:06.919Z,96964.56
2022-12-05T13:00:37.048Z,96958.59
2022-12-05T13:06:13.217Z,96943.28
2022-12-05T13:11:37.027Z,96956.66
2022-12-05T13:16:58.643Z,96958.59
2022-12-05T13:22:21.038Z,96977.00
2022-12-05T13:27:53.428Z,96981.31
2022-12-05T13:33:25.621Z,96977.13
2022-12-05T13:39:05.382Z,96985.00
2022-12-05T13:44:29.224Z,96993.66
2022-12-05T13:49:52.943Z,96988.69
2022-12-05T13:55:36.294Z,96991.81
2022-12-05T14:01:17.400Z,96985.00
2022-12-05T14:06:38.423Z,96986.72
2022-12-05T14:12:11.362Z,96992.72
2022-12-05T14:17:44.950Z,96980.13
2022-12-05T14:23:09.103Z,96984.16
2022-12-05T14:28:30.046Z,96980.97
2022-12-05T14:34:15.245Z,96983.44
2022-12-05T14:39:39.167Z,96982.59
2022-12-05T14:45:01.897Z,96982.06
2022-12-05T14:50:42.496Z,96980.75
2022-12-05T14:56:06.693Z,96984.50
2022-12-05T15:01:30.097Z,96996.38
2022-12-05T15:06:53.516Z,96989.06
2022-12-05T15:12:23.504Z,96979.75
2022-12-05T15:17:50.515Z,96987.22
2022-12-05T15:23:30.358Z,96990.66
2022-12-05T15:29:06.784Z,96996.63
2022-12-05T15:34:36.755Z,96998.13
2022-12-05T15:40:02.136Z,96999.19
2022-12-05T15:45:27.127Z,96990.59
2022-12-05T15:50:51.293Z,96995.22
2022-12-05T15:56:23.829Z,97003.94
2022-12-05T16:01:47.333Z,96992.16
2022-12-05T16:07:09.817Z,97007.00
2022-12-05T16:12:35.771Z,96989.97
2022-12-05T16:17:57.547Z,96986.44
2022-12-05T16:23:23.568Z,96987.78
2022-12-05T16:28:56.187Z,96994.53
2022-12-05T16:34:17.127Z,96998.06
2022-12-05T16:39:37.736Z,97013.81
2022-12-05T16:45:03.467Z,97010.38
2022-12-05T16:50:35.075Z,97006.97
2022-12-05T16:55:56.026Z,97006.16
2022-12-05T17:01:18.304Z,97007.09
2022-12-05T17:06:39.474Z,96994.59
2022-12-05T17:12:02.941Z,96995.91
2022-12-05T17:17:23.679Z,97001.72
2022-12-05T17:22:44.300Z,97005.06
2022-12-05T17:28:05.152Z,97001.72
2022-12-05T17:33:25.738Z,97009.38
2022-12-05T17:38:46.355Z,97011.69
2022-12-05T17:44:07.965Z,97012.66
2022-12-05T17:49:28.936Z,97009.03
2022-12-05T17:54:49.857Z,97002.81
2022-12-05T18:00:10.892Z,97006.31
2022-12-05T18:05:31.669Z,96999.78
2022-12-05T18:10:52.652Z,96996.50
2022-12-05T18:16:13.757Z,96998.53
2022-12-05T18:21:34.329Z,97001.16
2022-12-05T18:26:56.172Z,97003.78
2022-12-05T18:32:17.873Z,97002.88
2022-12-05T18:37:39.534Z,97006.69
2022-12-05T18:43:00.323Z,96998.25
2022-12-05T18:48:38.720Z,97002.34
2022-12-05T18:54:01.358Z,97002.50
2022-12-05T18:59:22.467Z,97000.22
2022-12-05T19:04:43.205Z,96993.16
2022-12-05T19:10:04.255Z,96990.38
2022-12-05T19:15:25.166Z,96982.19
2022-12-05T19:20:49.685Z,96979.63
2022-12-05T19:26:11.030Z,96979.66
2022-12-05T19:31:32.129Z,96978.66
2022-12-05T19:36:53.087Z,96963.88
2022-12-05T19:42:13.617Z,96964.72
2022-12-05T19:47:34.723Z,96973.59
2022-12-05T19:52:55.615Z,96977.97
2022-12-05T19:58:16.654Z,96972.56
2022-12-05T20:03:39.056Z,96984.88
2022-12-05T20:08:59.978Z,96986.53
2022-12-05T20:14:22.097Z,96975.28
2022-12-05T20:19:42.982Z,96970.09
2022-12-05T20:25:04.230Z,96966.91
2022-12-05T20:30:24.885Z,96961.72
2022-12-05T20:35:45.785Z,96963.91
2022-12-05T20:41:17.110Z,96944.63
2022-12-05T20:46:38.097Z,96939.38
2022-12-05T20:51:58.641Z,96935.84
2022-12-05T20:57:20.193Z,96938.75
2022-12-05T21:02:40.886Z,96928.94
2022-12-05T21:08:01.752Z,96921.66
2022-12-05T21:13:22.348Z,96927.47
2022-12-05T21:18:43.465Z,96926.81
2022-12-05T21:24:04.853Z,96922.91
2022-12-05T21:29:25.584Z,96923.34
2022-12-05T21:34:46.567Z,96918.88
2022-12-05T21:40:08.105Z,96915.78
2022-12-05T21:45:28.675Z,96914.94
2022-12-05T21:50:49.687Z,96910.38
2022-12-05T21:56:17.400Z,96915.44
2022-12-05T22:01:38.564Z,96914.13
2022-12-05T22:06:59.272Z,96906.59
2022-12-05T22:12:20.213Z,96899.03
2022-12-05T22:17:40.992Z,96882.91
2022-12-05T22:23:01.400Z,96862.81
2022-12-05T22:28:24.050Z,96851.66
2022-12-05T22:33:45.196Z,96882.47
2022-12-05T22:39:05.852Z,96877.41
2022-12-05T22:44:26.551Z,96887.22
2022-12-05T22:49:47.187Z,96890.00
2022-12-05T22:55:08.337Z,96887.59
2022-12-05T23:00:29.010Z,96874.09
2022-12-05T23:05:50.010Z,96868.00
2022-12-05T23:11:11.587Z,96864.28
2022-12-05T23:16:32.823Z,96857.66
2022-12-05T23:21:53.484Z,96839.88
2022-12-05T23:27:16.206Z,96825.00
2022-12-05T23:32:36.646Z,96826.13
2022-12-05T23:37:57.501Z,96823.25
2022-12-05T23:43:18.350Z,96821.16
2022-12-05T23:48:39.741Z,96825.38
2022-12-05T23:54:01.672Z,96824.69
2022-12-05T23:59:22.389Z,96830.84
